sensor_id;sensor_type;location;lat;lon;timestamp;P1;durP1;ratioP1;P2;durP2;ratioP2
6852;SDS011;3465;42.144;24.722;2023-11-21T00:01:52;4.90;;;2.23;;
6852;SDS011;3465;42.144;24.722;2023-11-21T00:04:17;2.90;;;2.10;;
6852;SDS011;3465;42.144;24.722;2023-11-21T00:06:43;2.83;;;1.87;;
6852;SDS011;3465;42.144;24.722;2023-11-21T00:09:11;3.50;;;1.90;;
6852;SDS011;3465;42.144;24.722;2023-11-21T00:11:38;3.00;;;1.90;;
6852;SDS011;3465;42.144;24.722;2023-11-21T00:14:03;4.63;;;2.27;;
6852;SDS011;3465;42.144;24.722;2023-11-21T00:16:29;6.23;;;2.40;;
6852;SDS011;3465;42.144;24.722;2023-11-21T00:18:54;4.37;;;2.03;;
6852;SDS011;3465;42.144;24.722;2023-11-21T00:21:20;3.60;;;1.73;;
6852;SDS011;3465;42.144;24.722;2023-11-21T00:23:45;3.77;;;2.00;;
6852;SDS011;3465;42.144;24.722;2023-11-21T00:26:11;3.97;;;2.20;;
6852;SDS011;3465;42.144;24.722;2023-11-21T00:28:36;4.23;;;1.90;;
6852;SDS011;3465;42.144;24.722;2023-11-21T00:31:01;5.50;;;2.00;;
6852;SDS011;3465;42.144;24.722;2023-11-21T00:33:27;4.70;;;2.10;;
6852;SDS011;3465;42.144;24.722;2023-11-21T00:35:52;7.67;;;2.60;;
6852;SDS011;3465;42.144;24.722;2023-11-21T00:38:18;3.37;;;1.90;;
6852;SDS011;3465;42.144;24.722;2023-11-21T00:40:45;6.07;;;2.07;;
6852;SDS011;3465;42.144;24.722;2023-11-21T00:43:10;3.20;;;2.10;;
6852;SDS011;3465;42.144;24.722;2023-11-21T00:45:36;7.63;;;2.10;;
6852;SDS011;3465;42.144;24.722;2023-11-21T00:48:02;3.87;;;2.10;;
6852;SDS011;3465;42.144;24.722;2023-11-21T00:50:29;4.60;;;2.53;;
6852;SDS011;3465;42.144;24.722;2023-11-21T00:52:55;2.70;;;2.00;;
6852;SDS011;3465;42.144;24.722;2023-11-21T00:55:21;4.20;;;2.30;;
6852;SDS011;3465;42.144;24.722;2023-11-21T00:57:46;3.77;;;2.13;;
6852;SDS011;3465;42.144;24.722;2023-11-21T01:00:12;3.63;;;2.10;;
6852;SDS011;3465;42.144;24.722;2023-11-21T01:02:43;7.87;;;2.23;;
6852;SDS011;3465;42.144;24.722;2023-11-21T01:05:12;2.97;;;2.00;;
6852;SDS011;3465;42.144;24.722;2023-11-21T01:07:38;2.47;;;1.87;;
6852;SDS011;3465;42.144;24.722;2023-11-21T01:10:03;2.67;;;1.80;;
6852;SDS011;3465;42.144;24.722;2023-11-21T01:12:32;3.23;;;2.17;;
6852;SDS011;3465;42.144;24.722;2023-11-21T01:14:59;3.93;;;2.27;;
6852;SDS011;3465;42.144;24.722;2023-11-21T01:17:25;4.60;;;2.60;;
6852;SDS011;3465;42.144;24.722;2023-11-21T01:19:51;5.97;;;2.70;;
6852;SDS011;3465;42.144;24.722;2023-11-21T01:22:16;4.23;;;2.53;;
6852;SDS011;3465;42.144;24.722;2023-11-21T01:24:47;5.70;;;2.67;;
6852;SDS011;3465;42.144;24.722;2023-11-21T01:27:12;5.73;;;3.00;;
6852;SDS011;3465;42.144;24.722;2023-11-21T01:29:38;4.67;;;2.60;;
6852;SDS011;3465;42.144;24.722;2023-11-21T01:32:03;7.77;;;3.00;;
6852;SDS011;3465;42.144;24.722;2023-11-21T01:34:29;7.43;;;2.60;;
6852;SDS011;3465;42.144;24.722;2023-11-21T01:36:55;5.13;;;2.77;;
6852;SDS011;3465;42.144;24.722;2023-11-21T01:39:21;8.63;;;3.00;;
6852;SDS011;3465;42.144;24.722;2023-11-21T01:41:49;6.13;;;3.10;;
6852;SDS011;3465;42.144;24.722;2023-11-21T01:44:16;5.40;;;3.03;;
6852;SDS011;3465;42.144;24.722;2023-11-21T01:46:44;8.17;;;3.00;;
6852;SDS011;3465;42.144;24.722;2023-11-21T01:49:11;9.83;;;3.07;;
6852;SDS011;3465;42.144;24.722;2023-11-21T01:51:38;5.43;;;2.83;;
6852;SDS011;3465;42.144;24.722;2023-11-21T01:54:05;6.00;;;3.10;;
6852;SDS011;3465;42.144;24.722;2023-11-21T01:56:31;5.63;;;2.53;;
6852;SDS011;3465;42.144;24.722;2023-11-21T01:58:57;6.60;;;3.17;;
6852;SDS011;3465;42.144;24.722;2023-11-21T02:01:23;6.13;;;2.97;;
6852;SDS011;3465;42.144;24.722;2023-11-21T02:03:48;6.07;;;3.33;;
6852;SDS011;3465;42.144;24.722;2023-11-21T02:06:14;9.50;;;3.37;;
6852;SDS011;3465;42.144;24.722;2023-11-21T02:08:39;9.43;;;3.50;;
6852;SDS011;3465;42.144;24.722;2023-11-21T02:11:07;7.40;;;3.17;;
6852;SDS011;3465;42.144;24.722;2023-11-21T02:13:34;8.10;;;4.03;;
6852;SDS011;3465;42.144;24.722;2023-11-21T02:16:00;8.13;;;4.30;;
6852;SDS011;3465;42.144;24.722;2023-11-21T02:18:26;27.97;;;5.80;;
6852;SDS011;3465;42.144;24.722;2023-11-21T02:20:54;77.20;;;8.80;;
6852;SDS011;3465;42.144;24.722;2023-11-21T02:23:20;124.10;;;13.67;;
6852;SDS011;3465;42.144;24.722;2023-11-21T02:25:46;101.33;;;12.60;;
6852;SDS011;3465;42.144;24.722;2023-11-21T02:28:12;66.20;;;8.77;;
6852;SDS011;3465;42.144;24.722;2023-11-21T02:30:40;52.87;;;9.23;;
6852;SDS011;3465;42.144;24.722;2023-11-21T02:33:06;59.83;;;8.97;;
6852;SDS011;3465;42.144;24.722;2023-11-21T02:35:32;51.73;;;7.67;;
6852;SDS011;3465;42.144;24.722;2023-11-21T02:37:57;42.43;;;7.33;;
6852;SDS011;3465;42.144;24.722;2023-11-21T02:40:23;32.87;;;5.50;;
6852;SDS011;3465;42.144;24.722;2023-11-21T02:42:50;29.73;;;6.10;;
6852;SDS011;3465;42.144;24.722;2023-11-21T02:45:20;25.07;;;5.63;;
6852;SDS011;3465;42.144;24.722;2023-11-21T02:47:46;21.50;;;6.17;;
6852;SDS011;3465;42.144;24.722;2023-11-21T02:50:12;21.07;;;4.60;;
6852;SDS011;3465;42.144;24.722;2023-11-21T02:52:38;15.10;;;5.00;;
6852;SDS011;3465;42.144;24.722;2023-11-21T02:55:07;25.93;;;5.67;;
6852;SDS011;3465;42.144;24.722;2023-11-21T02:57:33;23.70;;;6.00;;
6852;SDS011;3465;42.144;24.722;2023-11-21T02:59:59;18.43;;;4.80;;
6852;SDS011;3465;42.144;24.722;2023-11-21T03:02:25;21.50;;;5.67;;
6852;SDS011;3465;42.144;24.722;2023-11-21T03:04:50;23.90;;;5.10;;
6852;SDS011;3465;42.144;24.722;2023-11-21T03:07:16;24.33;;;4.60;;
6852;SDS011;3465;42.144;24.722;2023-11-21T03:09:44;21.40;;;5.87;;
6852;SDS011;3465;42.144;24.722;2023-11-21T03:12:10;14.13;;;4.57;;
6852;SDS011;3465;42.144;24.722;2023-11-21T03:14:37;16.40;;;3.97;;
6852;SDS011;3465;42.144;24.722;2023-11-21T03:17:03;11.47;;;4.57;;
6852;SDS011;3465;42.144;24.722;2023-11-21T03:19:30;10.07;;;4.13;;
6852;SDS011;3465;42.144;24.722;2023-11-21T03:21:56;10.37;;;4.40;;
6852;SDS011;3465;42.144;24.722;2023-11-21T03:24:22;21.80;;;4.43;;
6852;SDS011;3465;42.144;24.722;2023-11-21T03:26:48;10.63;;;4.40;;
6852;SDS011;3465;42.144;24.722;2023-11-21T03:29:14;9.73;;;4.17;;
6852;SDS011;3465;42.144;24.722;2023-11-21T03:31:40;16.80;;;4.83;;
6852;SDS011;3465;42.144;24.722;2023-11-21T03:34:05;15.27;;;4.60;;
6852;SDS011;3465;42.144;24.722;2023-11-21T03:36:31;14.73;;;4.70;;
6852;SDS011;3465;42.144;24.722;2023-11-21T03:38:57;21.27;;;4.67;;
6852;SDS011;3465;42.144;24.722;2023-11-21T03:41:22;18.63;;;4.37;;
6852;SDS011;3465;42.144;24.722;2023-11-21T03:43:48;15.57;;;4.67;;
6852;SDS011;3465;42.144;24.722;2023-11-21T03:46:13;15.07;;;5.17;;
6852;SDS011;3465;42.144;24.722;2023-11-21T03:48:39;17.17;;;5.33;;
6852;SDS011;3465;42.144;24.722;2023-11-21T03:51:05;9.67;;;5.17;;
6852;SDS011;3465;42.144;24.722;2023-11-21T03:53:31;10.63;;;4.77;;
6852;SDS011;3465;42.144;24.722;2023-11-21T03:55:57;21.97;;;5.07;;
6852;SDS011;3465;42.144;24.722;2023-11-21T03:58:23;20.27;;;5.43;;
6852;SDS011;3465;42.144;24.722;2023-11-21T04:00:48;12.47;;;5.30;;
6852;SDS011;3465;42.144;24.722;2023-11-21T04:03:16;15.60;;;5.13;;
6852;SDS011;3465;42.144;24.722;2023-11-21T04:05:42;9.83;;;4.47;;
6852;SDS011;3465;42.144;24.722;2023-11-21T04:08:07;18.63;;;5.47;;
6852;SDS011;3465;42.144;24.722;2023-11-21T04:10:32;15.40;;;5.63;;
6852;SDS011;3465;42.144;24.722;2023-11-21T04:12:58;15.47;;;5.70;;
6852;SDS011;3465;42.144;24.722;2023-11-21T04:15:25;13.77;;;5.33;;
6852;SDS011;3465;42.144;24.722;2023-11-21T04:17:51;18.50;;;5.80;;
6852;SDS011;3465;42.144;24.722;2023-11-21T04:20:16;18.03;;;6.20;;
6852;SDS011;3465;42.144;24.722;2023-11-21T04:22:43;21.97;;;5.80;;
6852;SDS011;3465;42.144;24.722;2023-11-21T04:25:14;14.70;;;5.30;;
6852;SDS011;3465;42.144;24.722;2023-11-21T04:27:40;19.63;;;5.60;;
6852;SDS011;3465;42.144;24.722;2023-11-21T04:30:09;17.07;;;6.03;;
6852;SDS011;3465;42.144;24.722;2023-11-21T04:32:35;16.67;;;5.70;;
6852;SDS011;3465;42.144;24.722;2023-11-21T04:35:01;17.00;;;5.57;;
6852;SDS011;3465;42.144;24.722;2023-11-21T04:37:27;10.00;;;5.47;;
6852;SDS011;3465;42.144;24.722;2023-11-21T04:39:52;12.50;;;5.80;;
6852;SDS011;3465;42.144;24.722;2023-11-21T04:42:18;18.83;;;6.50;;
6852;SDS011;3465;42.144;24.722;2023-11-21T04:44:43;18.70;;;6.37;;
6852;SDS011;3465;42.144;24.722;2023-11-21T04:47:09;17.80;;;6.33;;
6852;SDS011;3465;42.144;24.722;2023-11-21T04:49:35;15.87;;;6.10;;
6852;SDS011;3465;42.144;24.722;2023-11-21T04:52:01;11.77;;;4.87;;
6852;SDS011;3465;42.144;24.722;2023-11-21T04:54:28;18.83;;;5.67;;
6852;SDS011;3465;42.144;24.722;2023-11-21T04:56:55;12.77;;;5.47;;
6852;SDS011;3465;42.144;24.722;2023-11-21T04:59:21;20.70;;;5.77;;
6852;SDS011;3465;42.144;24.722;2023-11-21T05:01:49;10.57;;;5.27;;
6852;SDS011;3465;42.144;24.722;2023-11-21T05:04:15;13.83;;;5.30;;
6852;SDS011;3465;42.144;24.722;2023-11-21T05:06:40;15.30;;;5.13;;
6852;SDS011;3465;42.144;24.722;2023-11-21T05:09:06;11.57;;;4.63;;
6852;SDS011;3465;42.144;24.722;2023-11-21T05:11:36;12.37;;;5.03;;
6852;SDS011;3465;42.144;24.722;2023-11-21T05:14:02;17.40;;;5.67;;
6852;SDS011;3465;42.144;24.722;2023-11-21T05:16:29;18.60;;;5.63;;
6852;SDS011;3465;42.144;24.722;2023-11-21T05:18:54;17.43;;;5.37;;
6852;SDS011;3465;42.144;24.722;2023-11-21T05:21:25;10.03;;;4.87;;
6852;SDS011;3465;42.144;24.722;2023-11-21T05:23:51;12.70;;;5.13;;
6852;SDS011;3465;42.144;24.722;2023-11-21T05:26:16;11.47;;;5.43;;
6852;SDS011;3465;42.144;24.722;2023-11-21T05:28:42;13.00;;;5.73;;
6852;SDS011;3465;42.144;24.722;2023-11-21T05:31:07;14.57;;;6.30;;
6852;SDS011;3465;42.144;24.722;2023-11-21T05:33:33;16.47;;;6.43;;
6852;SDS011;3465;42.144;24.722;2023-11-21T05:35:58;19.10;;;7.70;;
6852;SDS011;3465;42.144;24.722;2023-11-21T05:38:24;21.57;;;7.37;;
6852;SDS011;3465;42.144;24.722;2023-11-21T05:40:49;18.00;;;7.77;;
6852;SDS011;3465;42.144;24.722;2023-11-21T05:43:15;17.97;;;7.87;;
6852;SDS011;3465;42.144;24.722;2023-11-21T05:45:40;21.90;;;8.77;;
6852;SDS011;3465;42.144;24.722;2023-11-21T05:48:06;17.87;;;8.07;;
6852;SDS011;3465;42.144;24.722;2023-11-21T05:50:31;20.83;;;7.93;;
6852;SDS011;3465;42.144;24.722;2023-11-21T05:52:57;15.57;;;7.53;;
6852;SDS011;3465;42.144;24.722;2023-11-21T05:55:25;17.03;;;7.60;;
6852;SDS011;3465;42.144;24.722;2023-11-21T05:57:50;21.57;;;8.20;;
6852;SDS011;3465;42.144;24.722;2023-11-21T06:00:16;21.10;;;8.60;;
6852;SDS011;3465;42.144;24.722;2023-11-21T06:02:51;36.83;;;19.93;;
6852;SDS011;3465;42.144;24.722;2023-11-21T06:05:18;31.90;;;13.53;;
6852;SDS011;3465;42.144;24.722;2023-11-21T06:07:46;27.37;;;9.97;;
6852;SDS011;3465;42.144;24.722;2023-11-21T06:10:11;21.13;;;8.87;;
6852;SDS011;3465;42.144;24.722;2023-11-21T06:12:39;15.00;;;7.97;;
6852;SDS011;3465;42.144;24.722;2023-11-21T06:15:05;25.60;;;7.50;;
6852;SDS011;3465;42.144;24.722;2023-11-21T06:17:34;15.83;;;7.67;;
6852;SDS011;3465;42.144;24.722;2023-11-21T06:20:04;18.60;;;7.40;;
6852;SDS011;3465;42.144;24.722;2023-11-21T06:22:37;14.70;;;7.23;;
6852;SDS011;3465;42.144;24.722;2023-11-21T06:25:12;14.17;;;6.80;;
6852;SDS011;3465;42.144;24.722;2023-11-21T06:27:39;22.93;;;7.93;;
6852;SDS011;3465;42.144;24.722;2023-11-21T06:30:12;19.77;;;7.13;;
6852;SDS011;3465;42.144;24.722;2023-11-21T06:32:40;18.67;;;7.70;;
6852;SDS011;3465;42.144;24.722;2023-11-21T06:35:06;20.37;;;7.90;;
6852;SDS011;3465;42.144;24.722;2023-11-21T06:37:33;13.17;;;7.10;;
6852;SDS011;3465;42.144;24.722;2023-11-21T06:39:59;22.80;;;8.70;;
6852;SDS011;3465;42.144;24.722;2023-11-21T06:42:25;18.03;;;8.07;;
6852;SDS011;3465;42.144;24.722;2023-11-21T06:44:51;12.47;;;6.73;;
6852;SDS011;3465;42.144;24.722;2023-11-21T06:47:18;14.63;;;7.20;;
6852;SDS011;3465;42.144;24.722;2023-11-21T06:49:47;18.13;;;7.17;;
6852;SDS011;3465;42.144;24.722;2023-11-21T06:52:15;17.23;;;7.63;;
6852;SDS011;3465;42.144;24.722;2023-11-21T06:54:41;18.57;;;7.93;;
6852;SDS011;3465;42.144;24.722;2023-11-21T06:57:07;16.43;;;7.47;;
6852;SDS011;3465;42.144;24.722;2023-11-21T06:59:32;13.33;;;6.87;;
6852;SDS011;3465;42.144;24.722;2023-11-21T07:01:58;13.50;;;6.37;;
6852;SDS011;3465;42.144;24.722;2023-11-21T07:04:24;15.57;;;6.97;;
6852;SDS011;3465;42.144;24.722;2023-11-21T07:06:51;16.13;;;6.47;;
6852;SDS011;3465;42.144;24.722;2023-11-21T07:09:16;17.10;;;7.53;;
6852;SDS011;3465;42.144;24.722;2023-11-21T07:11:42;15.50;;;7.67;;
6852;SDS011;3465;42.144;24.722;2023-11-21T07:14:07;12.20;;;6.20;;
6852;SDS011;3465;42.144;24.722;2023-11-21T07:16:37;20.30;;;8.30;;
6852;SDS011;3465;42.144;24.722;2023-11-21T07:19:06;21.07;;;8.77;;
6852;SDS011;3465;42.144;24.722;2023-11-21T07:21:35;20.63;;;8.13;;
6852;SDS011;3465;42.144;24.722;2023-11-21T07:24:01;15.40;;;8.17;;
6852;SDS011;3465;42.144;24.722;2023-11-21T07:26:31;25.73;;;8.57;;
6852;SDS011;3465;42.144;24.722;2023-11-21T07:28:57;18.53;;;9.37;;
6852;SDS011;3465;42.144;24.722;2023-11-21T07:31:22;23.57;;;10.00;;
6852;SDS011;3465;42.144;24.722;2023-11-21T07:33:49;26.60;;;10.57;;
6852;SDS011;3465;42.144;24.722;2023-11-21T07:36:15;22.57;;;10.00;;
6852;SDS011;3465;42.144;24.722;2023-11-21T07:38:43;21.37;;;10.50;;
6852;SDS011;3465;42.144;24.722;2023-11-21T07:41:09;21.73;;;9.37;;
6852;SDS011;3465;42.144;24.722;2023-11-21T07:43:35;17.57;;;8.70;;
6852;SDS011;3465;42.144;24.722;2023-11-21T07:46:01;13.50;;;7.77;;
6852;SDS011;3465;42.144;24.722;2023-11-21T07:48:28;16.57;;;8.33;;
6852;SDS011;3465;42.144;24.722;2023-11-21T07:50:57;15.50;;;8.17;;
6852;SDS011;3465;42.144;24.722;2023-11-21T07:53:26;19.20;;;8.37;;
6852;SDS011;3465;42.144;24.722;2023-11-21T07:55:54;17.67;;;7.50;;
6852;SDS011;3465;42.144;24.722;2023-11-21T07:58:20;14.73;;;7.20;;
6852;SDS011;3465;42.144;24.722;2023-11-21T08:00:45;15.57;;;7.10;;
6852;SDS011;3465;42.144;24.722;2023-11-21T08:03:13;13.97;;;7.00;;
6852;SDS011;3465;42.144;24.722;2023-11-21T08:05:39;11.93;;;6.87;;
6852;SDS011;3465;42.144;24.722;2023-11-21T08:08:04;15.93;;;7.67;;
6852;SDS011;3465;42.144;24.722;2023-11-21T08:10:30;16.80;;;6.97;;
6852;SDS011;3465;42.144;24.722;2023-11-21T08:12:55;18.07;;;5.83;;
6852;SDS011;3465;42.144;24.722;2023-11-21T08:15:21;12.17;;;5.50;;
6852;SDS011;3465;42.144;24.722;2023-11-21T08:17:47;13.90;;;5.63;;
6852;SDS011;3465;42.144;24.722;2023-11-21T08:20:13;10.10;;;5.33;;
6852;SDS011;3465;42.144;24.722;2023-11-21T08:22:42;11.93;;;5.30;;
6852;SDS011;3465;42.144;24.722;2023-11-21T08:25:07;12.20;;;5.50;;
6852;SDS011;3465;42.144;24.722;2023-11-21T08:27:33;13.17;;;5.60;;
6852;SDS011;3465;42.144;24.722;2023-11-21T08:29:59;14.27;;;5.10;;
6852;SDS011;3465;42.144;24.722;2023-11-21T08:32:26;10.03;;;4.97;;
6852;SDS011;3465;42.144;24.722;2023-11-21T08:34:51;11.70;;;4.77;;
6852;SDS011;3465;42.144;24.722;2023-11-21T08:37:17;10.67;;;4.73;;
6852;SDS011;3465;42.144;24.722;2023-11-21T08:39:47;7.13;;;3.77;;
6852;SDS011;3465;42.144;24.722;2023-11-21T08:42:13;8.30;;;3.83;;
6852;SDS011;3465;42.144;24.722;2023-11-21T08:44:39;8.43;;;4.07;;
6852;SDS011;3465;42.144;24.722;2023-11-21T08:47:05;8.57;;;4.50;;
6852;SDS011;3465;42.144;24.722;2023-11-21T08:49:30;8.37;;;3.97;;
6852;SDS011;3465;42.144;24.722;2023-11-21T08:51:56;7.13;;;4.60;;
6852;SDS011;3465;42.144;24.722;2023-11-21T08:54:24;10.40;;;4.50;;
6852;SDS011;3465;42.144;24.722;2023-11-21T08:56:51;10.07;;;5.27;;
6852;SDS011;3465;42.144;24.722;2023-11-21T08:59:17;9.37;;;4.80;;
6852;SDS011;3465;42.144;24.722;2023-11-21T09:01:42;15.00;;;4.13;;
6852;SDS011;3465;42.144;24.722;2023-11-21T09:04:07;8.13;;;4.23;;
6852;SDS011;3465;42.144;24.722;2023-11-21T09:06:33;6.67;;;3.50;;
6852;SDS011;3465;42.144;24.722;2023-11-21T09:08:58;7.67;;;3.50;;
6852;SDS011;3465;42.144;24.722;2023-11-21T09:11:24;6.40;;;3.67;;
6852;SDS011;3465;42.144;24.722;2023-11-21T09:13:52;11.50;;;3.53;;
6852;SDS011;3465;42.144;24.722;2023-11-21T09:16:17;8.37;;;3.67;;
6852;SDS011;3465;42.144;24.722;2023-11-21T09:18:43;21.90;;;3.90;;
6852;SDS011;3465;42.144;24.722;2023-11-21T09:21:08;28.17;;;5.30;;
6852;SDS011;3465;42.144;24.722;2023-11-21T09:23:34;31.60;;;4.70;;
6852;SDS011;3465;42.144;24.722;2023-11-21T09:26:00;8.47;;;3.67;;
6852;SDS011;3465;42.144;24.722;2023-11-21T09:28:26;6.37;;;3.20;;
6852;SDS011;3465;42.144;24.722;2023-11-21T09:30:52;7.47;;;3.43;;
6852;SDS011;3465;42.144;24.722;2023-11-21T09:33:18;9.47;;;3.70;;
6852;SDS011;3465;42.144;24.722;2023-11-21T09:35:44;6.67;;;3.77;;
6852;SDS011;3465;42.144;24.722;2023-11-21T09:38:10;5.13;;;3.43;;
6852;SDS011;3465;42.144;24.722;2023-11-21T09:40:35;7.23;;;3.50;;
6852;SDS011;3465;42.144;24.722;2023-11-21T09:43:04;5.13;;;2.90;;
6852;SDS011;3465;42.144;24.722;2023-11-21T09:45:34;9.77;;;4.00;;
6852;SDS011;3465;42.144;24.722;2023-11-21T09:48:01;5.73;;;3.70;;
6852;SDS011;3465;42.144;24.722;2023-11-21T09:50:27;8.63;;;4.00;;
6852;SDS011;3465;42.144;24.722;2023-11-21T09:55:46;11.57;;;4.03;;
6852;SDS011;3465;42.144;24.722;2023-11-21T09:58:15;7.50;;;4.10;;
6852;SDS011;3465;42.144;24.722;2023-11-21T10:00:41;6.70;;;3.83;;
6852;SDS011;3465;42.144;24.722;2023-11-21T10:03:11;6.73;;;3.47;;
6852;SDS011;3465;42.144;24.722;2023-11-21T10:05:37;10.70;;;4.43;;
6852;SDS011;3465;42.144;24.722;2023-11-21T10:08:07;8.27;;;3.67;;
6852;SDS011;3465;42.144;24.722;2023-11-21T10:10:35;7.33;;;3.80;;
6852;SDS011;3465;42.144;24.722;2023-11-21T10:13:02;7.87;;;3.90;;
6852;SDS011;3465;42.144;24.722;2023-11-21T10:15:35;8.33;;;4.13;;
6852;SDS011;3465;42.144;24.722;2023-11-21T10:18:02;10.40;;;4.37;;
6852;SDS011;3465;42.144;24.722;2023-11-21T10:20:28;6.70;;;4.33;;
6852;SDS011;3465;42.144;24.722;2023-11-21T10:22:55;9.93;;;4.30;;
6852;SDS011;3465;42.144;24.722;2023-11-21T10:25:22;7.33;;;4.43;;
6852;SDS011;3465;42.144;24.722;2023-11-21T10:27:48;8.00;;;4.80;;
6852;SDS011;3465;42.144;24.722;2023-11-21T10:30:17;14.23;;;5.83;;
6852;SDS011;3465;42.144;24.722;2023-11-21T10:32:43;11.03;;;4.90;;
6852;SDS011;3465;42.144;24.722;2023-11-21T10:35:08;11.07;;;5.20;;
6852;SDS011;3465;42.144;24.722;2023-11-21T10:37:40;13.27;;;4.60;;
6852;SDS011;3465;42.144;24.722;2023-11-21T10:40:09;9.73;;;4.73;;
6852;SDS011;3465;42.144;24.722;2023-11-21T10:42:39;9.53;;;5.17;;
6852;SDS011;3465;42.144;24.722;2023-11-21T10:45:05;7.27;;;4.47;;
6852;SDS011;3465;42.144;24.722;2023-11-21T10:47:41;12.03;;;5.47;;
6852;SDS011;3465;42.144;24.722;2023-11-21T10:50:07;11.10;;;5.47;;
6852;SDS011;3465;42.144;24.722;2023-11-21T10:52:36;11.77;;;4.70;;
6852;SDS011;3465;42.144;24.722;2023-11-21T10:55:19;11.80;;;5.27;;
6852;SDS011;3465;42.144;24.722;2023-11-21T10:57:51;12.63;;;5.50;;
6852;SDS011;3465;42.144;24.722;2023-11-21T11:00:18;12.03;;;5.00;;
6852;SDS011;3465;42.144;24.722;2023-11-21T11:02:46;10.17;;;5.03;;
6852;SDS011;3465;42.144;24.722;2023-11-21T11:05:15;9.10;;;4.63;;
6852;SDS011;3465;42.144;24.722;2023-11-21T11:07:45;11.50;;;5.70;;
6852;SDS011;3465;42.144;24.722;2023-11-21T11:10:17;16.70;;;5.83;;
6852;SDS011;3465;42.144;24.722;2023-11-21T11:12:46;13.77;;;5.50;;
6852;SDS011;3465;42.144;24.722;2023-11-21T11:15:12;12.87;;;5.60;;
6852;SDS011;3465;42.144;24.722;2023-11-21T11:17:39;10.17;;;5.70;;
6852;SDS011;3465;42.144;24.722;2023-11-21T11:20:07;8.40;;;5.30;;
6852;SDS011;3465;42.144;24.722;2023-11-21T11:28:22;15.37;;;6.53;;
6852;SDS011;3465;42.144;24.722;2023-11-21T11:36:36;11.50;;;6.40;;
6852;SDS011;3465;42.144;24.722;2023-11-21T11:39:28;16.43;;;6.80;;
6852;SDS011;3465;42.144;24.722;2023-11-21T11:42:14;13.87;;;6.20;;
6852;SDS011;3465;42.144;24.722;2023-11-21T11:47:14;18.57;;;6.20;;
6852;SDS011;3465;42.144;24.722;2023-11-21T11:50:04;16.13;;;6.47;;
6852;SDS011;3465;42.144;24.722;2023-11-21T11:52:46;12.63;;;6.20;;
6852;SDS011;3465;42.144;24.722;2023-11-21T11:55:15;17.30;;;6.23;;
6852;SDS011;3465;42.144;24.722;2023-11-21T11:57:43;18.47;;;6.67;;
6852;SDS011;3465;42.144;24.722;2023-11-21T12:02:43;11.43;;;5.67;;
6852;SDS011;3465;42.144;24.722;2023-11-21T12:05:10;15.37;;;5.77;;
6852;SDS011;3465;42.144;24.722;2023-11-21T12:10:19;9.77;;;4.90;;
6852;SDS011;3465;42.144;24.722;2023-11-21T12:15:23;10.77;;;5.03;;
6852;SDS011;3465;42.144;24.722;2023-11-21T12:17:50;14.67;;;4.43;;
6852;SDS011;3465;42.144;24.722;2023-11-21T12:20:20;10.43;;;4.77;;
6852;SDS011;3465;42.144;24.722;2023-11-21T12:22:48;8.13;;;4.70;;
6852;SDS011;3465;42.144;24.722;2023-11-21T12:27:43;17.13;;;5.80;;
6852;SDS011;3465;42.144;24.722;2023-11-21T12:30:31;10.13;;;5.20;;
6852;SDS011;3465;42.144;24.722;2023-11-21T12:33:01;7.70;;;4.53;;
6852;SDS011;3465;42.144;24.722;2023-11-21T12:35:29;13.00;;;4.60;;
6852;SDS011;3465;42.144;24.722;2023-11-21T12:37:59;8.80;;;4.63;;
6852;SDS011;3465;42.144;24.722;2023-11-21T12:40:25;7.70;;;4.97;;
6852;SDS011;3465;42.144;24.722;2023-11-21T12:42:51;10.53;;;5.50;;
6852;SDS011;3465;42.144;24.722;2023-11-21T12:45:19;9.67;;;4.90;;
6852;SDS011;3465;42.144;24.722;2023-11-21T12:47:49;11.00;;;6.50;;
6852;SDS011;3465;42.144;24.722;2023-11-21T12:50:22;13.23;;;6.63;;
6852;SDS011;3465;42.144;24.722;2023-11-21T12:52:51;12.43;;;7.00;;
6852;SDS011;3465;42.144;24.722;2023-11-21T12:55:19;15.57;;;7.43;;
6852;SDS011;3465;42.144;24.722;2023-11-21T12:57:50;12.17;;;7.50;;
6852;SDS011;3465;42.144;24.722;2023-11-21T13:00:17;13.87;;;7.27;;
6852;SDS011;3465;42.144;24.722;2023-11-21T13:02:56;14.03;;;7.70;;
6852;SDS011;3465;42.144;24.722;2023-11-21T13:05:24;16.80;;;7.37;;
6852;SDS011;3465;42.144;24.722;2023-11-21T13:07:50;12.23;;;7.50;;
6852;SDS011;3465;42.144;24.722;2023-11-21T13:10:19;12.90;;;6.90;;
6852;SDS011;3465;42.144;24.722;2023-11-21T13:12:54;12.90;;;7.37;;
6852;SDS011;3465;42.144;24.722;2023-11-21T13:15:23;13.43;;;7.47;;
6852;SDS011;3465;42.144;24.722;2023-11-21T13:17:49;11.20;;;6.53;;
6852;SDS011;3465;42.144;24.722;2023-11-21T13:20:16;13.43;;;6.40;;
6852;SDS011;3465;42.144;24.722;2023-11-21T13:22:48;15.87;;;6.43;;
6852;SDS011;3465;42.144;24.722;2023-11-21T13:25:14;11.53;;;5.57;;
6852;SDS011;3465;42.144;24.722;2023-11-21T13:27:42;9.57;;;5.13;;
6852;SDS011;3465;42.144;24.722;2023-11-21T13:30:13;10.43;;;5.50;;
6852;SDS011;3465;42.144;24.722;2023-11-21T13:32:41;13.13;;;6.40;;
6852;SDS011;3465;42.144;24.722;2023-11-21T13:35:16;11.00;;;5.93;;
6852;SDS011;3465;42.144;24.722;2023-11-21T13:37:55;16.83;;;7.07;;
6852;SDS011;3465;42.144;24.722;2023-11-21T13:40:25;13.53;;;6.93;;
6852;SDS011;3465;42.144;24.722;2023-11-21T13:42:54;11.63;;;6.70;;
6852;SDS011;3465;42.144;24.722;2023-11-21T13:45:20;16.67;;;7.33;;
6852;SDS011;3465;42.144;24.722;2023-11-21T13:47:48;14.20;;;7.40;;
6852;SDS011;3465;42.144;24.722;2023-11-21T13:50:16;12.47;;;7.10;;
6852;SDS011;3465;42.144;24.722;2023-11-21T13:52:47;15.20;;;7.47;;
6852;SDS011;3465;42.144;24.722;2023-11-21T13:55:14;17.47;;;7.63;;
6852;SDS011;3465;42.144;24.722;2023-11-21T13:57:40;17.30;;;8.00;;
6852;SDS011;3465;42.144;24.722;2023-11-21T14:00:10;17.03;;;7.97;;
6852;SDS011;3465;42.144;24.722;2023-11-21T14:02:57;17.47;;;8.67;;
6852;SDS011;3465;42.144;24.722;2023-11-21T14:05:28;17.30;;;8.53;;
6852;SDS011;3465;42.144;24.722;2023-11-21T14:07:58;16.07;;;6.87;;
6852;SDS011;3465;42.144;24.722;2023-11-21T14:10:32;15.63;;;7.50;;
6852;SDS011;3465;42.144;24.722;2023-11-21T14:13:11;14.93;;;7.60;;
6852;SDS011;3465;42.144;24.722;2023-11-21T14:15:38;19.13;;;7.90;;
6852;SDS011;3465;42.144;24.722;2023-11-21T14:18:09;17.30;;;7.87;;
6852;SDS011;3465;42.144;24.722;2023-11-21T14:20:42;19.03;;;7.60;;
6852;SDS011;3465;42.144;24.722;2023-11-21T14:23:07;19.83;;;7.73;;
6852;SDS011;3465;42.144;24.722;2023-11-21T14:25:35;20.57;;;8.00;;
6852;SDS011;3465;42.144;24.722;2023-11-21T14:28:02;21.87;;;10.10;;
6852;SDS011;3465;42.144;24.722;2023-11-21T14:30:29;31.40;;;13.70;;
6852;SDS011;3465;42.144;24.722;2023-11-21T14:32:57;32.50;;;12.27;;
6852;SDS011;3465;42.144;24.722;2023-11-21T14:35:23;28.40;;;12.30;;
6852;SDS011;3465;42.144;24.722;2023-11-21T14:37:49;30.50;;;11.67;;
6852;SDS011;3465;42.144;24.722;2023-11-21T14:40:14;23.97;;;11.40;;
6852;SDS011;3465;42.144;24.722;2023-11-21T14:42:41;25.33;;;11.80;;
6852;SDS011;3465;42.144;24.722;2023-11-21T14:45:08;23.17;;;10.80;;
6852;SDS011;3465;42.144;24.722;2023-11-21T14:47:37;26.40;;;11.50;;
6852;SDS011;3465;42.144;24.722;2023-11-21T14:50:07;30.03;;;11.00;;
6852;SDS011;3465;42.144;24.722;2023-11-21T14:52:53;27.63;;;12.33;;
6852;SDS011;3465;42.144;24.722;2023-11-21T14:55:24;18.87;;;10.23;;
6852;SDS011;3465;42.144;24.722;2023-11-21T14:58:13;36.77;;;11.43;;
6852;SDS011;3465;42.144;24.722;2023-11-21T15:00:43;17.87;;;9.63;;
6852;SDS011;3465;42.144;24.722;2023-11-21T15:03:09;33.27;;;11.20;;
6852;SDS011;3465;42.144;24.722;2023-11-21T15:05:43;21.40;;;8.60;;
6852;SDS011;3465;42.144;24.722;2023-11-21T15:08:08;20.27;;;8.07;;
6852;SDS011;3465;42.144;24.722;2023-11-21T15:10:45;35.83;;;10.57;;
6852;SDS011;3465;42.144;24.722;2023-11-21T15:13:13;15.73;;;7.17;;
6852;SDS011;3465;42.144;24.722;2023-11-21T15:15:39;25.30;;;8.03;;
6852;SDS011;3465;42.144;24.722;2023-11-21T15:18:06;22.47;;;8.67;;
6852;SDS011;3465;42.144;24.722;2023-11-21T15:20:32;15.27;;;7.73;;